ESTL weather

Ljungbyhed Airport
Ljungbyhed, Skåne län, Sweden

Public forecast

Using degrees Celsius for public forecast. Weather courtesy of forecast.io.

Current aviation weather report (METAR) for Ljungbyhed Airport

Retrieved 2020/03/30 19:50 UTC (19 minutes ago):

ESTL 301950Z AUTO 01003KT 9999 NCD 00/M12 Q1029

Aviation forecast (TAF) for Ljungbyhed Airport

Forecast is more than 12 hours old.

Retrieved 2016/03/01 09:33 UTC (4 years ago):

TAF ESTL 010830Z 0109/0124 14004KT 9999 SCT025